sensor_id;sensor_type;location;lat;lon;timestamp;P1;durP1;ratioP1;P2;durP2;ratioP2
81517;SDS011;70947;50.806;8.774;2023-07-09T00:00:56;12.10;;;7.80;;
81517;SDS011;70947;50.806;8.774;2023-07-09T00:03:49;10.00;;;6.20;;
81517;SDS011;70947;50.806;8.774;2023-07-09T00:06:22;9.80;;;6.30;;
81517;SDS011;70947;50.806;8.774;2023-07-09T00:08:55;10.00;;;5.40;;
81517;SDS011;70947;50.806;8.774;2023-07-09T00:11:26;8.10;;;5.20;;
81517;SDS011;70947;50.806;8.774;2023-07-09T00:13:58;8.50;;;5.10;;
81517;SDS011;70947;50.806;8.774;2023-07-09T00:16:30;8.70;;;6.00;;
81517;SDS011;70947;50.806;8.774;2023-07-09T00:19:02;7.00;;;5.00;;
81517;SDS011;70947;50.806;8.774;2023-07-09T00:21:34;7.60;;;5.40;;
81517;SDS011;70947;50.806;8.774;2023-07-09T00:24:06;8.90;;;5.20;;
81517;SDS011;70947;50.806;8.774;2023-07-09T00:26:39;7.70;;;5.00;;
81517;SDS011;70947;50.806;8.774;2023-07-09T00:29:12;8.20;;;5.00;;
81517;SDS011;70947;50.806;8.774;2023-07-09T00:31:44;7.80;;;5.30;;
81517;SDS011;70947;50.806;8.774;2023-07-09T00:34:16;7.20;;;4.90;;
81517;SDS011;70947;50.806;8.774;2023-07-09T00:36:51;8.30;;;5.10;;
81517;SDS011;70947;50.806;8.774;2023-07-09T00:39:22;8.00;;;5.20;;
81517;SDS011;70947;50.806;8.774;2023-07-09T00:41:55;8.40;;;4.90;;
81517;SDS011;70947;50.806;8.774;2023-07-09T00:44:29;9.70;;;5.60;;
81517;SDS011;70947;50.806;8.774;2023-07-09T00:50:06;19.80;;;11.90;;
81517;SDS011;70947;50.806;8.774;2023-07-09T00:52:43;100.70;;;56.00;;
81517;SDS011;70947;50.806;8.774;2023-07-09T00:55:20;190.10;;;97.50;;
81517;SDS011;70947;50.806;8.774;2023-07-09T00:58:00;160.10;;;85.00;;
81517;SDS011;70947;50.806;8.774;2023-07-09T01:00:36;96.40;;;50.70;;
81517;SDS011;70947;50.806;8.774;2023-07-09T01:03:31;75.40;;;38.30;;
81517;SDS011;70947;50.806;8.774;2023-07-09T01:06:06;60.80;;;34.10;;
81517;SDS011;70947;50.806;8.774;2023-07-09T01:08:39;43.10;;;24.10;;
81517;SDS011;70947;50.806;8.774;2023-07-09T01:11:18;34.70;;;20.10;;
81517;SDS011;70947;50.806;8.774;2023-07-09T01:13:52;25.10;;;15.00;;
81517;SDS011;70947;50.806;8.774;2023-07-09T01:16:27;24.40;;;13.20;;
81517;SDS011;70947;50.806;8.774;2023-07-09T01:19:02;24.00;;;13.00;;
81517;SDS011;70947;50.806;8.774;2023-07-09T01:21:34;18.20;;;10.90;;
81517;SDS011;70947;50.806;8.774;2023-07-09T01:24:13;16.90;;;10.00;;
81517;SDS011;70947;50.806;8.774;2023-07-09T01:27:07;16.70;;;9.90;;
81517;SDS011;70947;50.806;8.774;2023-07-09T01:29:39;13.80;;;8.30;;
81517;SDS011;70947;50.806;8.774;2023-07-09T01:32:14;9.90;;;6.50;;
81517;SDS011;70947;50.806;8.774;2023-07-09T01:34:49;9.00;;;6.20;;
81517;SDS011;70947;50.806;8.774;2023-07-09T01:37:24;9.10;;;5.60;;
81517;SDS011;70947;50.806;8.774;2023-07-09T01:39:57;8.20;;;5.50;;
81517;SDS011;70947;50.806;8.774;2023-07-09T01:42:29;8.80;;;6.00;;
81517;SDS011;70947;50.806;8.774;2023-07-09T01:45:02;11.30;;;5.30;;
81517;SDS011;70947;50.806;8.774;2023-07-09T01:47:35;8.30;;;5.60;;
81517;SDS011;70947;50.806;8.774;2023-07-09T01:50:08;8.20;;;5.40;;
81517;SDS011;70947;50.806;8.774;2023-07-09T01:52:40;10.30;;;5.50;;
81517;SDS011;70947;50.806;8.774;2023-07-09T01:55:15;9.90;;;5.20;;
81517;SDS011;70947;50.806;8.774;2023-07-09T01:57:47;7.90;;;4.90;;
81517;SDS011;70947;50.806;8.774;2023-07-09T02:00:20;7.50;;;5.10;;
81517;SDS011;70947;50.806;8.774;2023-07-09T02:02:52;9.00;;;5.30;;
81517;SDS011;70947;50.806;8.774;2023-07-09T02:05:27;8.50;;;5.10;;
81517;SDS011;70947;50.806;8.774;2023-07-09T02:08:00;8.00;;;5.00;;
81517;SDS011;70947;50.806;8.774;2023-07-09T02:10:32;8.40;;;5.70;;
81517;SDS011;70947;50.806;8.774;2023-07-09T02:13:04;9.10;;;6.20;;
81517;SDS011;70947;50.806;8.774;2023-07-09T02:15:36;7.50;;;5.00;;
81517;SDS011;70947;50.806;8.774;2023-07-09T02:18:12;9.70;;;6.10;;
81517;SDS011;70947;50.806;8.774;2023-07-09T02:20:46;9.00;;;5.70;;
81517;SDS011;70947;50.806;8.774;2023-07-09T02:23:18;10.00;;;6.20;;
81517;SDS011;70947;50.806;8.774;2023-07-09T02:25:50;7.30;;;5.30;;
81517;SDS011;70947;50.806;8.774;2023-07-09T02:28:22;10.10;;;5.70;;
81517;SDS011;70947;50.806;8.774;2023-07-09T02:30:54;9.90;;;6.10;;
81517;SDS011;70947;50.806;8.774;2023-07-09T02:33:26;9.40;;;5.60;;
81517;SDS011;70947;50.806;8.774;2023-07-09T02:36:02;10.20;;;6.00;;
81517;SDS011;70947;50.806;8.774;2023-07-09T02:38:34;8.60;;;5.40;;
81517;SDS011;70947;50.806;8.774;2023-07-09T02:41:06;9.10;;;5.50;;
81517;SDS011;70947;50.806;8.774;2023-07-09T02:43:38;8.80;;;6.10;;
81517;SDS011;70947;50.806;8.774;2023-07-09T02:46:10;9.60;;;5.80;;
81517;SDS011;70947;50.806;8.774;2023-07-09T02:48:42;10.00;;;5.80;;
81517;SDS011;70947;50.806;8.774;2023-07-09T02:51:14;8.50;;;5.90;;
81517;SDS011;70947;50.806;8.774;2023-07-09T02:53:46;7.90;;;5.40;;
81517;SDS011;70947;50.806;8.774;2023-07-09T02:56:17;10.30;;;5.70;;
81517;SDS011;70947;50.806;8.774;2023-07-09T02:58:49;8.70;;;5.70;;
81517;SDS011;70947;50.806;8.774;2023-07-09T03:01:22;8.40;;;5.90;;
81517;SDS011;70947;50.806;8.774;2023-07-09T03:03:56;9.20;;;5.80;;
81517;SDS011;70947;50.806;8.774;2023-07-09T03:06:29;8.50;;;6.10;;
81517;SDS011;70947;50.806;8.774;2023-07-09T03:09:02;11.00;;;5.80;;
81517;SDS011;70947;50.806;8.774;2023-07-09T03:11:34;8.70;;;5.30;;
81517;SDS011;70947;50.806;8.774;2023-07-09T03:14:07;8.80;;;5.40;;
81517;SDS011;70947;50.806;8.774;2023-07-09T03:16:39;6.50;;;4.80;;
81517;SDS011;70947;50.806;8.774;2023-07-09T03:19:12;8.50;;;5.40;;
81517;SDS011;70947;50.806;8.774;2023-07-09T03:21:44;9.60;;;5.60;;
81517;SDS011;70947;50.806;8.774;2023-07-09T03:24:15;8.40;;;5.20;;
81517;SDS011;70947;50.806;8.774;2023-07-09T03:26:48;7.90;;;5.50;;
81517;SDS011;70947;50.806;8.774;2023-07-09T03:29:20;9.20;;;5.50;;
81517;SDS011;70947;50.806;8.774;2023-07-09T03:31:52;7.40;;;4.40;;
81517;SDS011;70947;50.806;8.774;2023-07-09T03:34:24;7.90;;;5.40;;
81517;SDS011;70947;50.806;8.774;2023-07-09T03:36:56;8.60;;;5.70;;
81517;SDS011;70947;50.806;8.774;2023-07-09T03:39:28;10.60;;;5.90;;
81517;SDS011;70947;50.806;8.774;2023-07-09T03:41:59;10.20;;;6.10;;
81517;SDS011;70947;50.806;8.774;2023-07-09T03:44:32;7.50;;;4.90;;
81517;SDS011;70947;50.806;8.774;2023-07-09T03:47:04;10.10;;;5.80;;
81517;SDS011;70947;50.806;8.774;2023-07-09T03:49:36;8.60;;;5.10;;
81517;SDS011;70947;50.806;8.774;2023-07-09T03:52:10;9.30;;;5.40;;
81517;SDS011;70947;50.806;8.774;2023-07-09T03:54:43;8.80;;;5.80;;
81517;SDS011;70947;50.806;8.774;2023-07-09T03:57:15;8.60;;;5.50;;
81517;SDS011;70947;50.806;8.774;2023-07-09T03:59:47;9.70;;;5.70;;
81517;SDS011;70947;50.806;8.774;2023-07-09T04:02:18;9.50;;;5.20;;
81517;SDS011;70947;50.806;8.774;2023-07-09T04:04:51;8.80;;;5.50;;
81517;SDS011;70947;50.806;8.774;2023-07-09T04:07:24;9.20;;;5.30;;
81517;SDS011;70947;50.806;8.774;2023-07-09T04:09:56;8.60;;;5.30;;
81517;SDS011;70947;50.806;8.774;2023-07-09T04:12:27;8.90;;;5.00;;
81517;SDS011;70947;50.806;8.774;2023-07-09T04:14:59;8.90;;;5.40;;
81517;SDS011;70947;50.806;8.774;2023-07-09T04:17:31;8.20;;;5.20;;
81517;SDS011;70947;50.806;8.774;2023-07-09T04:20:05;7.70;;;4.90;;
81517;SDS011;70947;50.806;8.774;2023-07-09T04:22:38;10.40;;;6.00;;
81517;SDS011;70947;50.806;8.774;2023-07-09T04:25:11;8.60;;;5.50;;
81517;SDS011;70947;50.806;8.774;2023-07-09T04:27:43;9.10;;;5.00;;
81517;SDS011;70947;50.806;8.774;2023-07-09T04:30:15;8.70;;;5.40;;
81517;SDS011;70947;50.806;8.774;2023-07-09T04:32:47;11.50;;;5.20;;
81517;SDS011;70947;50.806;8.774;2023-07-09T04:35:19;7.80;;;5.20;;
81517;SDS011;70947;50.806;8.774;2023-07-09T04:37:51;6.90;;;4.80;;
81517;SDS011;70947;50.806;8.774;2023-07-09T04:40:22;7.20;;;4.90;;
81517;SDS011;70947;50.806;8.774;2023-07-09T04:42:54;8.30;;;5.20;;
81517;SDS011;70947;50.806;8.774;2023-07-09T04:45:26;8.90;;;5.50;;
81517;SDS011;70947;50.806;8.774;2023-07-09T04:47:58;9.10;;;5.90;;
81517;SDS011;70947;50.806;8.774;2023-07-09T04:50:30;8.20;;;5.50;;
81517;SDS011;70947;50.806;8.774;2023-07-09T04:53:01;7.50;;;5.20;;
81517;SDS011;70947;50.806;8.774;2023-07-09T04:55:33;8.80;;;4.70;;
81517;SDS011;70947;50.806;8.774;2023-07-09T04:58:05;8.30;;;5.40;;
81517;SDS011;70947;50.806;8.774;2023-07-09T05:00:37;8.40;;;5.30;;
81517;SDS011;70947;50.806;8.774;2023-07-09T05:03:09;9.50;;;5.10;;
81517;SDS011;70947;50.806;8.774;2023-07-09T05:05:43;9.70;;;6.40;;
81517;SDS011;70947;50.806;8.774;2023-07-09T05:08:15;8.50;;;5.40;;
81517;SDS011;70947;50.806;8.774;2023-07-09T05:10:50;7.20;;;5.20;;
81517;SDS011;70947;50.806;8.774;2023-07-09T05:13:22;8.90;;;5.70;;
81517;SDS011;70947;50.806;8.774;2023-07-09T05:15:54;8.10;;;5.40;;
81517;SDS011;70947;50.806;8.774;2023-07-09T05:18:27;8.10;;;4.20;;
81517;SDS011;70947;50.806;8.774;2023-07-09T05:20:58;8.20;;;4.90;;
81517;SDS011;70947;50.806;8.774;2023-07-09T05:23:30;9.90;;;5.40;;
81517;SDS011;70947;50.806;8.774;2023-07-09T05:26:02;8.30;;;5.70;;
81517;SDS011;70947;50.806;8.774;2023-07-09T05:28:34;9.30;;;5.60;;
81517;SDS011;70947;50.806;8.774;2023-07-09T05:31:06;7.40;;;5.30;;
81517;SDS011;70947;50.806;8.774;2023-07-09T05:33:38;7.40;;;4.90;;
81517;SDS011;70947;50.806;8.774;2023-07-09T05:36:10;11.70;;;5.60;;
81517;SDS011;70947;50.806;8.774;2023-07-09T05:38:45;8.60;;;5.40;;
81517;SDS011;70947;50.806;8.774;2023-07-09T05:41:17;8.50;;;5.10;;
81517;SDS011;70947;50.806;8.774;2023-07-09T05:43:49;7.80;;;5.00;;
81517;SDS011;70947;50.806;8.774;2023-07-09T05:46:22;8.40;;;5.30;;
81517;SDS011;70947;50.806;8.774;2023-07-09T05:48:54;8.80;;;5.80;;
81517;SDS011;70947;50.806;8.774;2023-07-09T05:51:26;9.90;;;5.90;;
81517;SDS011;70947;50.806;8.774;2023-07-09T05:53:58;7.60;;;5.40;;
81517;SDS011;70947;50.806;8.774;2023-07-09T05:56:30;9.10;;;5.50;;
81517;SDS011;70947;50.806;8.774;2023-07-09T05:59:02;8.10;;;5.70;;
81517;SDS011;70947;50.806;8.774;2023-07-09T06:01:34;9.30;;;5.70;;
81517;SDS011;70947;50.806;8.774;2023-07-09T06:04:06;9.10;;;5.40;;
81517;SDS011;70947;50.806;8.774;2023-07-09T06:06:38;8.70;;;5.40;;
81517;SDS011;70947;50.806;8.774;2023-07-09T06:09:10;7.30;;;5.20;;
81517;SDS011;70947;50.806;8.774;2023-07-09T06:11:42;8.60;;;5.80;;
81517;SDS011;70947;50.806;8.774;2023-07-09T06:14:13;7.30;;;5.20;;
81517;SDS011;70947;50.806;8.774;2023-07-09T06:16:46;9.20;;;5.90;;
81517;SDS011;70947;50.806;8.774;2023-07-09T06:19:18;8.10;;;5.30;;
81517;SDS011;70947;50.806;8.774;2023-07-09T06:21:49;9.50;;;5.60;;
81517;SDS011;70947;50.806;8.774;2023-07-09T06:24:21;8.70;;;5.30;;
81517;SDS011;70947;50.806;8.774;2023-07-09T06:26:53;9.30;;;5.60;;
81517;SDS011;70947;50.806;8.774;2023-07-09T06:29:25;9.00;;;6.00;;
81517;SDS011;70947;50.806;8.774;2023-07-09T06:31:56;8.10;;;5.30;;
81517;SDS011;70947;50.806;8.774;2023-07-09T06:34:28;8.10;;;5.40;;
81517;SDS011;70947;50.806;8.774;2023-07-09T06:37:00;7.40;;;4.90;;
81517;SDS011;70947;50.806;8.774;2023-07-09T06:39:33;8.00;;;5.20;;
81517;SDS011;70947;50.806;8.774;2023-07-09T06:42:06;9.30;;;5.40;;
81517;SDS011;70947;50.806;8.774;2023-07-09T06:44:38;8.70;;;5.40;;
81517;SDS011;70947;50.806;8.774;2023-07-09T06:47:09;7.20;;;4.90;;
81517;SDS011;70947;50.806;8.774;2023-07-09T06:49:41;7.90;;;5.10;;
81517;SDS011;70947;50.806;8.774;2023-07-09T06:52:13;8.40;;;5.70;;
81517;SDS011;70947;50.806;8.774;2023-07-09T06:54:45;7.50;;;5.50;;
81517;SDS011;70947;50.806;8.774;2023-07-09T06:57:18;7.80;;;5.50;;
81517;SDS011;70947;50.806;8.774;2023-07-09T06:59:49;7.70;;;5.30;;
81517;SDS011;70947;50.806;8.774;2023-07-09T07:02:21;7.80;;;5.00;;
81517;SDS011;70947;50.806;8.774;2023-07-09T07:04:53;10.50;;;6.00;;
81517;SDS011;70947;50.806;8.774;2023-07-09T07:07:25;8.10;;;5.20;;
81517;SDS011;70947;50.806;8.774;2023-07-09T07:09:57;8.10;;;6.00;;
81517;SDS011;70947;50.806;8.774;2023-07-09T07:12:29;7.10;;;5.20;;
81517;SDS011;70947;50.806;8.774;2023-07-09T07:15:11;8.00;;;6.00;;
81517;SDS011;70947;50.806;8.774;2023-07-09T07:17:43;7.30;;;5.50;;
81517;SDS011;70947;50.806;8.774;2023-07-09T07:20:16;9.40;;;5.70;;
81517;SDS011;70947;50.806;8.774;2023-07-09T07:22:48;8.80;;;5.80;;
81517;SDS011;70947;50.806;8.774;2023-07-09T07:25:20;7.50;;;5.30;;
81517;SDS011;70947;50.806;8.774;2023-07-09T07:27:52;8.30;;;5.40;;
81517;SDS011;70947;50.806;8.774;2023-07-09T07:30:24;7.00;;;5.10;;
81517;SDS011;70947;50.806;8.774;2023-07-09T07:32:56;7.40;;;5.00;;
81517;SDS011;70947;50.806;8.774;2023-07-09T07:35:28;9.00;;;5.50;;
81517;SDS011;70947;50.806;8.774;2023-07-09T07:38:00;7.50;;;5.30;;
81517;SDS011;70947;50.806;8.774;2023-07-09T07:40:32;8.70;;;5.20;;
81517;SDS011;70947;50.806;8.774;2023-07-09T07:43:05;9.80;;;5.70;;
81517;SDS011;70947;50.806;8.774;2023-07-09T07:45:37;8.20;;;5.50;;
81517;SDS011;70947;50.806;8.774;2023-07-09T07:48:12;6.70;;;5.00;;
81517;SDS011;70947;50.806;8.774;2023-07-09T07:50:45;7.10;;;4.90;;
81517;SDS011;70947;50.806;8.774;2023-07-09T07:53:17;9.20;;;5.60;;
81517;SDS011;70947;50.806;8.774;2023-07-09T07:55:49;8.70;;;5.50;;
81517;SDS011;70947;50.806;8.774;2023-07-09T07:58:21;9.40;;;5.10;;
81517;SDS011;70947;50.806;8.774;2023-07-09T08:00:55;6.30;;;5.10;;
81517;SDS011;70947;50.806;8.774;2023-07-09T08:03:28;8.70;;;4.80;;
81517;SDS011;70947;50.806;8.774;2023-07-09T08:05:59;7.30;;;4.60;;
81517;SDS011;70947;50.806;8.774;2023-07-09T08:08:31;8.00;;;4.80;;
81517;SDS011;70947;50.806;8.774;2023-07-09T08:11:04;7.60;;;5.00;;
81517;SDS011;70947;50.806;8.774;2023-07-09T08:13:38;6.20;;;4.20;;
81517;SDS011;70947;50.806;8.774;2023-07-09T08:16:10;6.20;;;4.30;;
81517;SDS011;70947;50.806;8.774;2023-07-09T08:18:45;7.80;;;4.40;;
81517;SDS011;70947;50.806;8.774;2023-07-09T08:21:17;6.30;;;4.80;;
81517;SDS011;70947;50.806;8.774;2023-07-09T08:23:48;7.10;;;5.20;;
81517;SDS011;70947;50.806;8.774;2023-07-09T08:26:20;7.80;;;4.70;;
81517;SDS011;70947;50.806;8.774;2023-07-09T08:28:53;7.70;;;4.50;;
81517;SDS011;70947;50.806;8.774;2023-07-09T08:31:25;7.40;;;4.90;;
81517;SDS011;70947;50.806;8.774;2023-07-09T08:33:57;8.20;;;4.70;;
81517;SDS011;70947;50.806;8.774;2023-07-09T08:36:28;8.10;;;4.70;;
81517;SDS011;70947;50.806;8.774;2023-07-09T08:39:02;9.20;;;4.80;;
81517;SDS011;70947;50.806;8.774;2023-07-09T08:41:37;8.10;;;4.60;;
81517;SDS011;70947;50.806;8.774;2023-07-09T08:44:21;7.30;;;4.60;;
81517;SDS011;70947;50.806;8.774;2023-07-09T08:47:07;6.80;;;4.40;;
81517;SDS011;70947;50.806;8.774;2023-07-09T08:49:47;6.90;;;4.60;;
81517;SDS011;70947;50.806;8.774;2023-07-09T08:52:26;8.40;;;5.10;;
81517;SDS011;70947;50.806;8.774;2023-07-09T08:55:03;7.00;;;4.90;;
81517;SDS011;70947;50.806;8.774;2023-07-09T08:57:39;7.70;;;4.90;;
81517;SDS011;70947;50.806;8.774;2023-07-09T09:00:15;7.20;;;4.50;;
81517;SDS011;70947;50.806;8.774;2023-07-09T09:02:50;7.30;;;4.70;;
81517;SDS011;70947;50.806;8.774;2023-07-09T09:05:26;7.10;;;4.40;;
81517;SDS011;70947;50.806;8.774;2023-07-09T09:08:02;7.00;;;4.10;;
81517;SDS011;70947;50.806;8.774;2023-07-09T09:10:44;7.10;;;4.50;;
81517;SDS011;70947;50.806;8.774;2023-07-09T09:13:23;7.40;;;5.00;;
81517;SDS011;70947;50.806;8.774;2023-07-09T09:16:01;8.90;;;5.20;;
81517;SDS011;70947;50.806;8.774;2023-07-09T09:18:41;6.40;;;3.90;;
81517;SDS011;70947;50.806;8.774;2023-07-09T09:21:17;8.00;;;4.70;;
81517;SDS011;70947;50.806;8.774;2023-07-09T09:23:54;7.10;;;4.40;;
81517;SDS011;70947;50.806;8.774;2023-07-09T09:26:30;8.30;;;4.80;;
81517;SDS011;70947;50.806;8.774;2023-07-09T09:29:08;7.90;;;4.60;;
81517;SDS011;70947;50.806;8.774;2023-07-09T09:31:42;7.60;;;4.60;;
81517;SDS011;70947;50.806;8.774;2023-07-09T09:34:19;7.40;;;5.30;;
81517;SDS011;70947;50.806;8.774;2023-07-09T09:36:52;6.90;;;5.10;;
81517;SDS011;70947;50.806;8.774;2023-07-09T09:39:24;8.20;;;4.80;;
81517;SDS011;70947;50.806;8.774;2023-07-09T09:41:57;7.50;;;4.70;;
81517;SDS011;70947;50.806;8.774;2023-07-09T09:44:29;7.90;;;4.90;;
81517;SDS011;70947;50.806;8.774;2023-07-09T09:47:02;7.80;;;4.60;;
81517;SDS011;70947;50.806;8.774;2023-07-09T09:49:39;8.20;;;4.50;;
81517;SDS011;70947;50.806;8.774;2023-07-09T09:52:14;6.80;;;4.70;;
81517;SDS011;70947;50.806;8.774;2023-07-09T09:54:49;7.20;;;4.40;;
81517;SDS011;70947;50.806;8.774;2023-07-09T09:57:24;7.90;;;4.50;;
81517;SDS011;70947;50.806;8.774;2023-07-09T09:59:57;6.90;;;4.50;;
81517;SDS011;70947;50.806;8.774;2023-07-09T10:02:37;7.30;;;4.60;;
81517;SDS011;70947;50.806;8.774;2023-07-09T10:05:12;5.30;;;4.20;;
81517;SDS011;70947;50.806;8.774;2023-07-09T10:07:47;6.10;;;4.30;;
81517;SDS011;70947;50.806;8.774;2023-07-09T10:10:30;7.90;;;4.30;;
81517;SDS011;70947;50.806;8.774;2023-07-09T10:13:07;7.40;;;4.20;;
81517;SDS011;70947;50.806;8.774;2023-07-09T10:16:07;7.20;;;4.40;;
81517;SDS011;70947;50.806;8.774;2023-07-09T10:18:46;7.10;;;4.00;;
81517;SDS011;70947;50.806;8.774;2023-07-09T10:21:26;6.00;;;4.20;;
81517;SDS011;70947;50.806;8.774;2023-07-09T10:24:06;8.30;;;3.80;;
81517;SDS011;70947;50.806;8.774;2023-07-09T10:27:00;6.80;;;4.10;;
81517;SDS011;70947;50.806;8.774;2023-07-09T10:32:53;5.90;;;4.30;;
81517;SDS011;70947;50.806;8.774;2023-07-09T10:35:38;6.90;;;4.20;;
81517;SDS011;70947;50.806;8.774;2023-07-09T10:38:29;6.80;;;4.80;;
81517;SDS011;70947;50.806;8.774;2023-07-09T10:41:11;7.20;;;4.50;;
81517;SDS011;70947;50.806;8.774;2023-07-09T10:43:56;7.20;;;4.80;;
81517;SDS011;70947;50.806;8.774;2023-07-09T10:46:35;6.60;;;4.10;;
81517;SDS011;70947;50.806;8.774;2023-07-09T10:49:11;7.10;;;4.50;;
81517;SDS011;70947;50.806;8.774;2023-07-09T10:51:46;7.00;;;3.90;;
81517;SDS011;70947;50.806;8.774;2023-07-09T10:54:24;6.90;;;4.00;;
81517;SDS011;70947;50.806;8.774;2023-07-09T10:57:04;5.10;;;3.80;;
81517;SDS011;70947;50.806;8.774;2023-07-09T10:59:43;6.60;;;3.90;;
81517;SDS011;70947;50.806;8.774;2023-07-09T11:02:21;6.30;;;4.20;;
81517;SDS011;70947;50.806;8.774;2023-07-09T11:04:56;6.30;;;4.10;;
81517;SDS011;70947;50.806;8.774;2023-07-09T11:07:30;7.90;;;4.20;;
81517;SDS011;70947;50.806;8.774;2023-07-09T11:10:20;6.30;;;4.00;;
81517;SDS011;70947;50.806;8.774;2023-07-09T11:12:58;6.00;;;4.20;;
81517;SDS011;70947;50.806;8.774;2023-07-09T11:15:33;6.80;;;4.40;;
81517;SDS011;70947;50.806;8.774;2023-07-09T11:18:10;6.10;;;4.10;;
81517;SDS011;70947;50.806;8.774;2023-07-09T11:20:56;6.70;;;4.00;;
81517;SDS011;70947;50.806;8.774;2023-07-09T11:23:38;6.30;;;4.10;;
81517;SDS011;70947;50.806;8.774;2023-07-09T11:26:14;6.90;;;3.70;;
81517;SDS011;70947;50.806;8.774;2023-07-09T11:28:54;8.60;;;5.40;;
81517;SDS011;70947;50.806;8.774;2023-07-09T11:31:42;13.70;;;10.50;;
81517;SDS011;70947;50.806;8.774;2023-07-09T11:34:18;8.90;;;5.80;;
81517;SDS011;70947;50.806;8.774;2023-07-09T11:36:58;8.00;;;4.60;;
81517;SDS011;70947;50.806;8.774;2023-07-09T11:39:39;6.60;;;4.30;;
81517;SDS011;70947;50.806;8.774;2023-07-09T11:42:25;5.70;;;4.40;;
81517;SDS011;70947;50.806;8.774;2023-07-09T11:45:00;8.30;;;4.50;;
81517;SDS011;70947;50.806;8.774;2023-07-09T11:47:38;7.00;;;4.20;;
81517;SDS011;70947;50.806;8.774;2023-07-09T11:50:16;8.10;;;5.10;;
81517;SDS011;70947;50.806;8.774;2023-07-09T11:52:55;5.60;;;4.10;;
81517;SDS011;70947;50.806;8.774;2023-07-09T11:55:29;55.70;;;41.90;;
81517;SDS011;70947;50.806;8.774;2023-07-09T11:58:08;6.10;;;3.80;;
81517;SDS011;70947;50.806;8.774;2023-07-09T12:00:43;8.40;;;4.50;;
81517;SDS011;70947;50.806;8.774;2023-07-09T12:03:18;6.10;;;4.40;;
81517;SDS011;70947;50.806;8.774;2023-07-09T12:08:26;13.70;;;8.80;;
81517;SDS011;70947;50.806;8.774;2023-07-09T12:11:02;5.90;;;4.20;;
81517;SDS011;70947;50.806;8.774;2023-07-09T12:13:38;5.80;;;3.60;;
81517;SDS011;70947;50.806;8.774;2023-07-09T12:16:20;6.60;;;3.80;;
81517;SDS011;70947;50.806;8.774;2023-07-09T12:18:54;6.20;;;4.10;;
81517;SDS011;70947;50.806;8.774;2023-07-09T12:21:26;6.40;;;4.40;;
81517;SDS011;70947;50.806;8.774;2023-07-09T12:24:00;7.90;;;4.50;;
81517;SDS011;70947;50.806;8.774;2023-07-09T12:26:32;7.10;;;3.80;;
81517;SDS011;70947;50.806;8.774;2023-07-09T12:29:07;7.50;;;4.20;;
81517;SDS011;70947;50.806;8.774;2023-07-09T12:31:41;17.00;;;11.60;;
81517;SDS011;70947;50.806;8.774;2023-07-09T12:34:13;7.10;;;4.30;;
81517;SDS011;70947;50.806;8.774;2023-07-09T12:36:49;14.00;;;9.50;;
81517;SDS011;70947;50.806;8.774;2023-07-09T12:39:24;7.80;;;4.20;;
81517;SDS011;70947;50.806;8.774;2023-07-09T12:41:59;6.40;;;4.60;;
81517;SDS011;70947;50.806;8.774;2023-07-09T12:44:33;6.30;;;4.10;;
81517;SDS011;70947;50.806;8.774;2023-07-09T12:47:07;6.20;;;4.20;;
81517;SDS011;70947;50.806;8.774;2023-07-09T12:49:44;8.30;;;4.20;;
81517;SDS011;70947;50.806;8.774;2023-07-09T12:52:21;6.60;;;3.70;;
81517;SDS011;70947;50.806;8.774;2023-07-09T12:54:55;6.30;;;3.70;;
81517;SDS011;70947;50.806;8.774;2023-07-09T12:57:28;6.60;;;4.20;;
81517;SDS011;70947;50.806;8.774;2023-07-09T13:00:00;7.80;;;4.20;;
81517;SDS011;70947;50.806;8.774;2023-07-09T13:02:44;7.00;;;4.10;;
81517;SDS011;70947;50.806;8.774;2023-07-09T13:05:22;6.80;;;3.70;;
81517;SDS011;70947;50.806;8.774;2023-07-09T13:07:58;7.80;;;4.20;;
81517;SDS011;70947;50.806;8.774;2023-07-09T13:10:34;7.30;;;4.10;;
81517;SDS011;70947;50.806;8.774;2023-07-09T13:13:12;7.00;;;4.40;;
81517;SDS011;70947;50.806;8.774;2023-07-09T13:15:47;8.50;;;4.40;;
81517;SDS011;70947;50.806;8.774;2023-07-09T13:18:25;6.80;;;4.20;;
81517;SDS011;70947;50.806;8.774;2023-07-09T13:20:59;6.00;;;3.70;;
81517;SDS011;70947;50.806;8.774;2023-07-09T13:23:43;6.50;;;4.00;;
81517;SDS011;70947;50.806;8.774;2023-07-09T13:26:15;6.30;;;4.10;;
81517;SDS011;70947;50.806;8.774;2023-07-09T13:28:47;8.40;;;4.10;;
81517;SDS011;70947;50.806;8.774;2023-07-09T13:31:20;7.70;;;4.70;;
81517;SDS011;70947;50.806;8.774;2023-07-09T13:33:53;8.10;;;4.30;;
81517;SDS011;70947;50.806;8.774;2023-07-09T13:36:28;6.00;;;3.80;;
81517;SDS011;70947;50.806;8.774;2023-07-09T13:39:00;6.50;;;4.10;;
81517;SDS011;70947;50.806;8.774;2023-07-09T13:41:32;10.40;;;6.30;;
81517;SDS011;70947;50.806;8.774;2023-07-09T13:44:08;9.10;;;7.00;;
81517;SDS011;70947;50.806;8.774;2023-07-09T13:46:43;6.10;;;4.20;;
81517;SDS011;70947;50.806;8.774;2023-07-09T13:49:16;9.20;;;4.30;;
81517;SDS011;70947;50.806;8.774;2023-07-09T13:51:50;5.50;;;4.10;;
81517;SDS011;70947;50.806;8.774;2023-07-09T13:54:24;6.60;;;4.70;;
81517;SDS011;70947;50.806;8.774;2023-07-09T13:57:01;6.90;;;4.10;;
81517;SDS011;70947;50.806;8.774;2023-07-09T13:59:33;6.10;;;4.20;;
81517;SDS011;70947;50.806;8.774;2023-07-09T14:02:11;8.80;;;4.20;;
81517;SDS011;70947;50.806;8.774;2023-07-09T14:04:50;25.10;;;8.50;;
81517;SDS011;70947;50.806;8.774;2023-07-09T14:07:26;56.60;;;15.30;;
81517;SDS011;70947;50.806;8.774;2023-07-09T14:10:01;35.70;;;11.00;;
81517;SDS011;70947;50.806;8.774;2023-07-09T14:12:34;52.80;;;16.10;;
81517;SDS011;70947;50.806;8.774;2023-07-09T14:15:12;29.80;;;9.40;;
81517;SDS011;70947;50.806;8.774;2023-07-09T14:17:46;28.60;;;8.10;;
81517;SDS011;70947;50.806;8.774;2023-07-09T14:20:19;13.50;;;5.80;;
81517;SDS011;70947;50.806;8.774;2023-07-09T14:22:50;27.70;;;8.40;;
81517;SDS011;70947;50.806;8.774;2023-07-09T14:25:23;13.70;;;5.70;;
81517;SDS011;70947;50.806;8.774;2023-07-09T14:27:56;9.00;;;4.50;;
81517;SDS011;70947;50.806;8.774;2023-07-09T14:30:28;11.60;;;5.00;;
81517;SDS011;70947;50.806;8.774;2023-07-09T14:33:00;10.80;;;5.00;;
81517;SDS011;70947;50.806;8.774;2023-07-09T14:35:32;13.30;;;6.00;;
81517;SDS011;70947;50.806;8.774;2023-07-09T14:38:06;9.50;;;5.20;;
81517;SDS011;70947;50.806;8.774;2023-07-09T14:43:18;7.20;;;4.40;;
81517;SDS011;70947;50.806;8.774;2023-07-09T14:45:50;6.20;;;4.90;;
81517;SDS011;70947;50.806;8.774;2023-07-09T14:48:22;7.30;;;4.70;;
81517;SDS011;70947;50.806;8.774;2023-07-09T14:50:54;9.50;;;5.00;;
81517;SDS011;70947;50.806;8.774;2023-07-09T14:53:26;7.30;;;4.50;;
81517;SDS011;70947;50.806;8.774;2023-07-09T14:55:58;8.40;;;4.40;;
81517;SDS011;70947;50.806;8.774;2023-07-09T14:58:30;9.20;;;4.50;;
81517;SDS011;70947;50.806;8.774;2023-07-09T15:01:02;7.60;;;4.60;;
81517;SDS011;70947;50.806;8.774;2023-07-09T15:03:34;8.50;;;4.60;;
81517;SDS011;70947;50.806;8.774;2023-07-09T15:06:06;7.90;;;4.60;;
81517;SDS011;70947;50.806;8.774;2023-07-09T15:08:38;7.00;;;4.70;;
81517;SDS011;70947;50.806;8.774;2023-07-09T15:11:10;7.80;;;5.00;;
81517;SDS011;70947;50.806;8.774;2023-07-09T15:13:42;9.40;;;4.60;;
81517;SDS011;70947;50.806;8.774;2023-07-09T15:16:14;7.80;;;5.60;;
81517;SDS011;70947;50.806;8.774;2023-07-09T15:18:46;7.20;;;4.60;;
81517;SDS011;70947;50.806;8.774;2023-07-09T15:21:18;7.30;;;4.80;;
81517;SDS011;70947;50.806;8.774;2023-07-09T15:23:50;7.90;;;4.80;;
81517;SDS011;70947;50.806;8.774;2023-07-09T15:26:21;6.40;;;4.60;;
81517;SDS011;70947;50.806;8.774;2023-07-09T15:28:53;6.30;;;4.20;;
81517;SDS011;70947;50.806;8.774;2023-07-09T15:31:25;7.60;;;4.60;;
81517;SDS011;70947;50.806;8.774;2023-07-09T15:33:57;6.40;;;4.60;;
81517;SDS011;70947;50.806;8.774;2023-07-09T15:36:29;8.70;;;5.40;;
81517;SDS011;70947;50.806;8.774;2023-07-09T15:39:01;6.90;;;4.30;;